Time;durP1;ratioP1;P1;durP2;ratioP2;P2;SDS_P1;SDS_P2;PMS_P1;PMS_P2;Temp;Humidity;BMP_temperature;BMP_pressure;BME280_temperature;BME280_humidity;BME280_pressure;Samples;Min_cycle;Max_cycle;Signal;HPM_P1;HPM_P2
2023/06/13 00:01:02;;;;;;;5.75;2.40;;;;;;;;;;4944961;28;20023;-44
2023/06/13 00:03:29;;;;;;;2.70;2.50;;;;;;;;;;4943510;28;20043;-44
2023/06/13 00:05:55;;;;;;;4.38;2.40;;;;;;;;;;4942956;28;20020;-47
2023/06/13 00:08:21;;;;;;;5.13;2.90;;;;;;;;;;4939995;28;20186;-47
2023/06/13 00:10:50;;;;;;;7.00;2.78;;;;;;;;;;4941379;28;20881;-47
2023/06/13 00:13:16;;;;;;;7.32;2.90;;;;;;;;;;4944232;28;20058;-46
2023/06/13 00:15:53;;;;;;;5.45;2.60;;;;;;;;;;4944814;28;20031;-47
2023/06/13 00:18:19;;;;;;;3.53;2.50;;;;;;;;;;4941572;28;20576;-44
2023/06/13 00:20:48;;;;;;;4.18;2.95;;;;;;;;;;4941840;28;20035;-49
2023/06/13 00:23:15;;;;;;;5.97;2.60;;;;;;;;;;4939591;28;20676;-50
2023/06/13 00:25:40;;;;;;;5.32;2.70;;;;;;;;;;4941452;28;20041;-50
2023/06/13 00:28:05;;;;;;;3.38;2.40;;;;;;;;;;4941604;28;20043;-49
2023/06/13 00:30:31;;;;;;;3.80;2.50;;;;;;;;;;4938329;28;20113;-45
2023/06/13 00:32:57;;;;;;;5.15;2.55;;;;;;;;;;4941785;28;20048;-44
2023/06/13 00:35:22;;;;;;;3.03;2.72;;;;;;;;;;4939083;28;20047;-44
2023/06/13 00:37:54;;;;;;;3.30;2.80;;;;;;;;;;4939718;28;20028;-49
2023/06/13 00:40:20;;;;;;;5.40;2.65;;;;;;;;;;4942752;28;20035;-48
2023/06/13 00:42:46;;;;;;;5.22;2.88;;;;;;;;;;4943278;28;20134;-44
2023/06/13 00:45:25;;;;;;;2.90;2.67;;;;;;;;;;4946643;28;20528;-46
2023/06/13 00:48:03;;;;;;;3.35;3.00;;;;;;;;;;4939635;28;20050;-44
2023/06/13 00:50:32;;;;;;;3.08;2.70;;;;;;;;;;4943465;28;20023;-45
2023/06/13 00:53:02;;;;;;;2.55;2.38;;;;;;;;;;4942670;28;20082;-44
2023/06/13 00:55:27;;;;;;;4.65;2.80;;;;;;;;;;4946417;28;20031;-45
2023/06/13 00:57:58;;;;;;;2.65;2.45;;;;;;;;;;4947492;28;20048;-47
2023/06/13 01:00:25;;;;;;;4.07;2.70;;;;;;;;;;4947524;28;20671;-47
2023/06/13 01:02:57;;;;;;;4.95;2.63;;;;;;;;;;4943978;28;20051;-46
2023/06/13 01:05:25;;;;;;;2.85;2.58;;;;;;;;;;4946428;28;20392;-47
2023/06/13 01:07:52;;;;;;;2.33;2.22;;;;;;;;;;4944797;28;20035;-50
2023/06/13 01:10:18;;;;;;;5.25;2.63;;;;;;;;;;4949905;28;20031;-46
2023/06/13 01:12:53;;;;;;;3.42;2.70;;;;;;;;;;4945098;28;20585;-45
2023/06/13 01:15:21;;;;;;;2.83;2.22;;;;;;;;;;4945041;28;20041;-44
2023/06/13 01:17:57;;;;;;;4.72;2.60;;;;;;;;;;4942289;28;20117;-51
2023/06/13 01:20:26;;;;;;;2.90;2.40;;;;;;;;;;4941779;28;20399;-46
2023/06/13 01:23:03;;;;;;;5.72;2.70;;;;;;;;;;4941642;28;20419;-45
2023/06/13 01:26:21;;;;;;;5.20;2.92;;;;;;;;;;4946372;28;20031;-50
2023/06/13 01:28:51;;;;;;;6.07;2.90;;;;;;;;;;4851653;29;20081;-44
2023/06/13 01:31:19;;;;;;;2.95;2.63;;;;;;;;;;4850426;29;20050;-47
2023/06/13 01:33:46;;;;;;;6.18;2.97;;;;;;;;;;4853114;29;20048;-48
2023/06/13 01:36:12;;;;;;;3.72;3.05;;;;;;;;;;4854597;29;20094;-45
2023/06/13 01:38:39;;;;;;;6.03;3.13;;;;;;;;;;4851962;29;20041;-48
2023/06/13 01:41:04;;;;;;;9.27;3.10;;;;;;;;;;4853917;29;20045;-44
2023/06/13 01:43:30;;;;;;;5.40;3.03;;;;;;;;;;4854229;29;20052;-44
2023/06/13 01:46:04;;;;;;;4.25;3.25;;;;;;;;;;4850722;29;20045;-48
2023/06/13 01:48:47;;;;;;;2.92;2.72;;;;;;;;;;4853271;29;20558;-51
2023/06/13 01:51:29;;;;;;;6.93;2.60;;;;;;;;;;4852694;29;20053;-47
2023/06/13 01:54:00;;;;;;;3.78;2.72;;;;;;;;;;4850023;29;20078;-48
2023/06/13 01:56:29;;;;;;;2.97;2.73;;;;;;;;;;4853311;29;20053;-48
2023/06/13 01:58:57;;;;;;;3.95;3.00;;;;;;;;;;4854037;29;20046;-51
2023/06/13 02:01:25;;;;;;;4.15;2.85;;;;;;;;;;4852053;29;20048;-51
2023/06/13 02:03:50;;;;;;;5.32;3.05;;;;;;;;;;4852053;29;20037;-51
2023/06/13 02:06:17;;;;;;;3.22;2.95;;;;;;;;;;4909437;28;20053;-47
2023/06/13 02:08:44;;;;;;;2.92;2.72;;;;;;;;;;4945669;28;20066;-45
2023/06/13 02:11:09;;;;;;;7.30;2.90;;;;;;;;;;4944200;28;20023;-45
2023/06/13 02:13:35;;;;;;;4.15;2.95;;;;;;;;;;4944596;28;20146;-46
2023/06/13 02:16:00;;;;;;;4.80;2.95;;;;;;;;;;4946386;28;20147;-44
2023/06/13 02:18:27;;;;;;;4.90;3.47;;;;;;;;;;4943440;28;20074;-44
2023/06/13 02:20:53;;;;;;;5.07;3.17;;;;;;;;;;4947334;28;20031;-43
2023/06/13 02:23:19;;;;;;;4.32;3.47;;;;;;;;;;4940546;28;20055;-45
2023/06/13 02:25:45;;;;;;;3.63;3.33;;;;;;;;;;4943048;28;20507;-50
2023/06/13 02:28:10;;;;;;;6.70;3.70;;;;;;;;;;4942848;28;20054;-49
2023/06/13 02:30:36;;;;;;;4.25;3.60;;;;;;;;;;4943044;28;20032;-44
2023/06/13 02:33:01;;;;;;;7.25;3.83;;;;;;;;;;4943883;28;20065;-45
2023/06/13 02:35:27;;;;;;;4.07;3.72;;;;;;;;;;4942749;28;20031;-49
2023/06/13 02:37:53;;;;;;;5.13;3.95;;;;;;;;;;4944382;28;20102;-45
2023/06/13 02:40:23;;;;;;;5.38;3.63;;;;;;;;;;4944641;28;20027;-46
2023/06/13 02:42:49;;;;;;;5.18;3.85;;;;;;;;;;4944204;28;20138;-48
2023/06/13 02:45:18;;;;;;;5.50;4.97;;;;;;;;;;4944292;28;20049;-51
2023/06/13 02:47:43;;;;;;;4.18;3.78;;;;;;;;;;4947935;28;20123;-44
2023/06/13 02:50:09;;;;;;;4.93;4.07;;;;;;;;;;4947440;28;20122;-44
2023/06/13 02:52:35;;;;;;;5.97;3.90;;;;;;;;;;4944189;28;20090;-44
2023/06/13 02:55:00;;;;;;;9.43;4.38;;;;;;;;;;4940675;28;20563;-44
2023/06/13 02:57:26;;;;;;;5.35;3.63;;;;;;;;;;4943866;28;20042;-45
2023/06/13 02:59:51;;;;;;;7.63;4.40;;;;;;;;;;4944364;28;20119;-46
2023/06/13 03:02:20;;;;;;;5.55;4.05;;;;;;;;;;4943028;28;21964;-44
2023/06/13 03:04:47;;;;;;;15.55;4.18;;;;;;;;;;4942913;28;20043;-47
2023/06/13 03:07:16;;;;;;;6.28;4.13;;;;;;;;;;4944552;28;20044;-48
2023/06/13 03:09:42;;;;;;;5.55;3.20;;;;;;;;;;4943086;28;20487;-46
2023/06/13 03:12:07;;;;;;;11.40;3.83;;;;;;;;;;4944119;28;20047;-45
2023/06/13 03:14:33;;;;;;;4.20;3.80;;;;;;;;;;4945853;28;20515;-45
2023/06/13 03:16:59;;;;;;;5.38;3.50;;;;;;;;;;4943369;28;20059;-44
2023/06/13 03:19:24;;;;;;;4.68;3.85;;;;;;;;;;4943703;28;20439;-49
2023/06/13 03:21:50;;;;;;;4.07;3.30;;;;;;;;;;4942522;28;20039;-47
2023/06/13 03:24:15;;;;;;;4.07;3.78;;;;;;;;;;4945094;28;20035;-46
2023/06/13 03:26:41;;;;;;;5.00;3.00;;;;;;;;;;4943867;28;20087;-45
2023/06/13 03:29:07;;;;;;;5.88;4.85;;;;;;;;;;4946276;28;20472;-44
2023/06/13 03:31:32;;;;;;;5.20;3.50;;;;;;;;;;4944906;28;20051;-46
2023/06/13 03:33:58;;;;;;;5.30;3.50;;;;;;;;;;4944592;28;20070;-46
2023/06/13 03:36:23;;;;;;;7.25;3.13;;;;;;;;;;4946430;28;20043;-44
2023/06/13 03:38:50;;;;;;;4.63;3.25;;;;;;;;;;4943695;28;20555;-44
2023/06/13 03:41:15;;;;;;;5.32;3.22;;;;;;;;;;4938885;28;20035;-44
2023/06/13 03:43:40;;;;;;;4.50;3.78;;;;;;;;;;4941728;28;20031;-47
2023/06/13 03:46:06;;;;;;;5.55;3.33;;;;;;;;;;4941809;28;20107;-44
2023/06/13 03:48:31;;;;;;;5.78;2.95;;;;;;;;;;4941044;28;20027;-47
2023/06/13 03:50:57;;;;;;;4.32;3.13;;;;;;;;;;4942288;28;20527;-47
2023/06/13 03:53:22;;;;;;;3.33;3.13;;;;;;;;;;4944549;28;20396;-44
2023/06/13 03:55:47;;;;;;;6.60;3.20;;;;;;;;;;4946641;28;20034;-44
2023/06/13 03:58:13;;;;;;;3.38;3.05;;;;;;;;;;4942938;28;20043;-48
2023/06/13 04:00:41;;;;;;;5.57;3.30;;;;;;;;;;4947093;28;20035;-45
2023/06/13 04:03:08;;;;;;;6.32;3.30;;;;;;;;;;4937370;28;20091;-50
2023/06/13 04:05:33;;;;;;;6.15;3.10;;;;;;;;;;4947386;28;20035;-51
2023/06/13 04:07:59;;;;;;;7.25;3.47;;;;;;;;;;4942787;28;20047;-46
2023/06/13 04:10:24;;;;;;;7.80;3.65;;;;;;;;;;4943543;28;20384;-43
2023/06/13 04:12:50;;;;;;;3.88;2.97;;;;;;;;;;4941092;28;20047;-44
2023/06/13 04:15:16;;;;;;;3.75;3.03;;;;;;;;;;4945210;28;20034;-44
2023/06/13 04:17:41;;;;;;;4.70;2.75;;;;;;;;;;4944532;28;20047;-46
2023/06/13 04:20:09;;;;;;;4.03;2.95;;;;;;;;;;4942682;28;20034;-44
2023/06/13 04:22:35;;;;;;;3.03;2.72;;;;;;;;;;4940601;28;20047;-45
2023/06/13 04:25:00;;;;;;;4.63;3.25;;;;;;;;;;4945045;28;20105;-44
2023/06/13 04:27:29;;;;;;;4.20;2.97;;;;;;;;;;4943284;28;20480;-44
2023/06/13 04:29:56;;;;;;;3.25;2.95;;;;;;;;;;4945856;28;20491;-44
2023/06/13 04:32:23;;;;;;;4.68;3.28;;;;;;;;;;4947428;28;20070;-50
2023/06/13 04:34:54;;;;;;;5.50;2.70;;;;;;;;;;4945939;28;20059;-44
2023/06/13 04:37:25;;;;;;;5.40;3.13;;;;;;;;;;4943370;28;20048;-46
2023/06/13 04:39:54;;;;;;;6.57;3.13;;;;;;;;;;4946313;28;20106;-47
2023/06/13 04:42:29;;;;;;;4.53;3.00;;;;;;;;;;4944403;28;20039;-47
2023/06/13 04:44:58;;;;;;;4.25;3.17;;;;;;;;;;4944696;28;20388;-44
2023/06/13 04:47:27;;;;;;;4.10;2.92;;;;;;;;;;4941731;28;20052;-45
2023/06/13 04:49:58;;;;;;;8.43;2.95;;;;;;;;;;4948540;28;20078;-48
2023/06/13 04:52:27;;;;;;;7.95;3.03;;;;;;;;;;4949671;28;20236;-47
2023/06/13 04:54:54;;;;;;;5.97;3.35;;;;;;;;;;4947232;28;20027;-51
2023/06/13 04:57:20;;;;;;;3.35;3.05;;;;;;;;;;4944276;28;20027;-51
2023/06/13 04:59:46;;;;;;;5.63;3.30;;;;;;;;;;4946351;28;20073;-46
2023/06/13 05:02:12;;;;;;;4.05;3.20;;;;;;;;;;4944212;28;20051;-44
2023/06/13 05:04:37;;;;;;;6.07;3.38;;;;;;;;;;4945616;28;20031;-44
2023/06/13 05:07:05;;;;;;;4.82;3.05;;;;;;;;;;4944144;28;20115;-44
2023/06/13 05:09:30;;;;;;;4.82;2.80;;;;;;;;;;4945685;28;20032;-46
2023/06/13 05:11:56;;;;;;;6.82;3.40;;;;;;;;;;4939838;28;20058;-46
2023/06/13 05:14:21;;;;;;;3.65;2.97;;;;;;;;;;4944675;28;20490;-44
2023/06/13 05:16:47;;;;;;;3.30;3.00;;;;;;;;;;4941766;28;20070;-45
2023/06/13 05:19:12;;;;;;;5.10;2.80;;;;;;;;;;4944848;28;20217;-50
2023/06/13 05:21:38;;;;;;;5.03;2.90;;;;;;;;;;4943563;28;20412;-49
2023/06/13 05:24:03;;;;;;;2.97;2.78;;;;;;;;;;4943699;28;20015;-49
2023/06/13 05:26:29;;;;;;;4.57;3.00;;;;;;;;;;4943318;28;20050;-43
2023/06/13 05:28:54;;;;;;;7.07;3.13;;;;;;;;;;4940561;28;20044;-45
2023/06/13 05:31:20;;;;;;;3.22;2.90;;;;;;;;;;4935292;28;20118;-50
2023/06/13 05:33:46;;;;;;;9.15;4.03;;;;;;;;;;4937857;28;20031;-47
2023/06/13 05:36:11;;;;;;;10.45;4.03;;;;;;;;;;4942006;28;20046;-49
2023/06/13 05:38:37;;;;;;;23.02;4.40;;;;;;;;;;4945750;28;20035;-48
2023/06/13 05:41:02;;;;;;;5.53;2.10;;;;;;;;;;4938354;28;20051;-47
2023/06/13 05:43:28;;;;;;;9.48;3.05;;;;;;;;;;4941051;28;20063;-47
2023/06/13 05:45:53;;;;;;;4.30;2.72;;;;;;;;;;4946888;28;20469;-45
2023/06/13 05:48:19;;;;;;;3.35;2.03;;;;;;;;;;4945325;28;20043;-45
2023/06/13 05:50:44;;;;;;;3.90;2.38;;;;;;;;;;4945344;28;20042;-47
2023/06/13 05:53:10;;;;;;;2.33;2.10;;;;;;;;;;4940297;28;20135;-47
2023/06/13 05:55:35;;;;;;;2.88;2.25;;;;;;;;;;4941417;28;20038;-48
2023/06/13 05:58:00;;;;;;;5.60;2.00;;;;;;;;;;4939924;28;20462;-45
2023/06/13 06:00:26;;;;;;;3.70;2.40;;;;;;;;;;4945673;28;20027;-46
2023/06/13 06:02:52;;;;;;;4.13;2.75;;;;;;;;;;4944952;28;20039;-49
2023/06/13 06:05:19;;;;;;;3.28;2.60;;;;;;;;;;4944945;28;20059;-47
2023/06/13 06:07:45;;;;;;;5.57;2.05;;;;;;;;;;4945318;28;20582;-51
2023/06/13 06:10:11;;;;;;;3.53;2.30;;;;;;;;;;4943254;28;20618;-50
2023/06/13 06:12:37;;;;;;;3.63;2.00;;;;;;;;;;4937835;28;20046;-48
2023/06/13 06:15:03;;;;;;;2.40;2.20;;;;;;;;;;4941370;28;20032;-51
2023/06/13 06:17:28;;;;;;;2.40;2.20;;;;;;;;;;4938735;28;20747;-49
2023/06/13 06:19:53;;;;;;;6.65;2.50;;;;;;;;;;4941684;28;20560;-46
2023/06/13 06:22:19;;;;;;;4.10;1.90;;;;;;;;;;4942707;28;20051;-51
2023/06/13 06:24:45;;;;;;;3.72;2.55;;;;;;;;;;4941470;28;20039;-50
2023/06/13 06:27:13;;;;;;;8.73;2.25;;;;;;;;;;4944200;28;20058;-48
2023/06/13 06:29:39;;;;;;;5.72;2.72;;;;;;;;;;4944578;28;20029;-48
2023/06/13 06:32:06;;;;;;;4.00;2.45;;;;;;;;;;4939501;28;20053;-47
2023/06/13 06:34:32;;;;;;;4.63;2.55;;;;;;;;;;4937979;28;20055;-46
2023/06/13 06:36:58;;;;;;;4.30;2.47;;;;;;;;;;4928162;28;20070;-48
2023/06/13 06:39:23;;;;;;;5.05;3.15;;;;;;;;;;4946741;28;20039;-45
2023/06/13 06:41:49;;;;;;;3.80;2.67;;;;;;;;;;4945140;28;20043;-48
2023/06/13 06:44:14;;;;;;;6.22;3.28;;;;;;;;;;4941616;28;20031;-49
2023/06/13 06:46:40;;;;;;;7.35;2.63;;;;;;;;;;4943053;28;20039;-45
2023/06/13 06:49:05;;;;;;;6.57;3.13;;;;;;;;;;4943338;28;20023;-45
2023/06/13 06:51:31;;;;;;;9.32;3.55;;;;;;;;;;4941247;28;20050;-50
2023/06/13 06:53:56;;;;;;;11.32;3.22;;;;;;;;;;4942824;28;20027;-51
2023/06/13 06:56:22;;;;;;;11.35;3.35;;;;;;;;;;4945868;28;20050;-52
2023/06/13 06:58:48;;;;;;;7.47;3.08;;;;;;;;;;4943978;28;20039;-45
2023/06/13 07:01:15;;;;;;;4.85;2.78;;;;;;;;;;4944875;28;20053;-45
2023/06/13 07:03:41;;;;;;;4.53;3.10;;;;;;;;;;4946799;28;20476;-47
2023/06/13 07:06:06;;;;;;;4.40;3.15;;;;;;;;;;4945223;28;20089;-46
2023/06/13 07:08:32;;;;;;;3.80;3.22;;;;;;;;;;4943443;28;20516;-45
2023/06/13 07:10:57;;;;;;;3.80;3.08;;;;;;;;;;4943235;28;20125;-45
2023/06/13 07:13:23;;;;;;;6.68;3.20;;;;;;;;;;4947996;28;20494;-48
2023/06/13 07:15:48;;;;;;;5.32;3.65;;;;;;;;;;4942446;28;20095;-49
2023/06/13 07:18:14;;;;;;;4.95;3.90;;;;;;;;;;4940049;28;20047;-46
2023/06/13 07:20:40;;;;;;;3.47;3.17;;;;;;;;;;4939418;28;22022;-48
2023/06/13 07:23:06;;;;;;;4.07;3.78;;;;;;;;;;4945142;28;20038;-47
2023/06/13 07:25:32;;;;;;;5.45;3.65;;;;;;;;;;4944329;28;20106;-50
2023/06/13 07:27:58;;;;;;;3.80;3.53;;;;;;;;;;4943847;28;20049;-50
2023/06/13 07:30:23;;;;;;;4.72;2.95;;;;;;;;;;4944963;28;20023;-46
2023/06/13 07:32:50;;;;;;;4.47;4.07;;;;;;;;;;4943411;28;20062;-48
2023/06/13 07:35:16;;;;;;;4.00;3.25;;;;;;;;;;4945833;28;20031;-52
2023/06/13 07:37:42;;;;;;;4.00;3.50;;;;;;;;;;4945921;28;20496;-51
2023/06/13 07:40:09;;;;;;;7.25;3.92;;;;;;;;;;4946578;28;20042;-46
2023/06/13 07:42:35;;;;;;;4.28;3.88;;;;;;;;;;4940850;28;20616;-45
2023/06/13 07:45:00;;;;;;;4.53;3.80;;;;;;;;;;4941746;28;20031;-48
2023/06/13 07:47:25;;;;;;;4.57;3.60;;;;;;;;;;4944397;28;20043;-46
2023/06/13 07:49:51;;;;;;;4.72;4.03;;;;;;;;;;4943471;28;20039;-47
2023/06/13 07:52:16;;;;;;;6.50;3.72;;;;;;;;;;4945025;28;20055;-46
2023/06/13 07:54:42;;;;;;;8.98;4.63;;;;;;;;;;4939826;28;20380;-45
2023/06/13 07:57:07;;;;;;;5.35;4.22;;;;;;;;;;4946537;28;20050;-45
2023/06/13 07:59:33;;;;;;;5.47;4.10;;;;;;;;;;4942446;28;20031;-45
2023/06/13 08:01:58;;;;;;;8.57;4.47;;;;;;;;;;4941107;28;20050;-48
2023/06/13 08:04:24;;;;;;;4.72;3.97;;;;;;;;;;4944717;28;20019;-50
2023/06/13 08:06:50;;;;;;;3.72;3.40;;;;;;;;;;4945934;28;20496;-46
2023/06/13 08:09:17;;;;;;;5.03;3.70;;;;;;;;;;4943508;28;20043;-46
2023/06/13 08:11:43;;;;;;;4.22;3.80;;;;;;;;;;4949700;28;20982;-49
2023/06/13 08:14:12;;;;;;;4.97;3.80;;;;;;;;;;4943913;28;20031;-46
2023/06/13 08:16:38;;;;;;;4.10;3.80;;;;;;;;;;4946547;28;20043;-52
2023/06/13 08:19:04;;;;;;;5.70;3.35;;;;;;;;;;4950401;28;20074;-44
2023/06/13 08:21:31;;;;;;;5.43;3.10;;;;;;;;;;4947648;28;20441;-46
2023/06/13 08:23:59;;;;;;;4.88;3.75;;;;;;;;;;4944508;28;20047;-47
2023/06/13 08:26:25;;;;;;;4.65;3.67;;;;;;;;;;4947676;28;20062;-45
2023/06/13 08:28:50;;;;;;;5.00;3.28;;;;;;;;;;4944285;28;20469;-45
2023/06/13 08:31:17;;;;;;;6.45;3.33;;;;;;;;;;4943459;28;20047;-47
2023/06/13 08:33:42;;;;;;;8.38;3.67;;;;;;;;;;4946964;28;20127;-45
2023/06/13 08:36:07;;;;;;;9.05;3.30;;;;;;;;;;4946246;28;20559;-45
2023/06/13 08:38:33;;;;;;;6.38;5.15;;;;;;;;;;4949808;28;20035;-44
2023/06/13 08:40:59;;;;;;;10.63;3.30;;;;;;;;;;4945679;28;20038;-50
2023/06/13 08:43:25;;;;;;;9.15;3.42;;;;;;;;;;4946625;28;20054;-48
2023/06/13 08:45:51;;;;;;;5.40;3.35;;;;;;;;;;4947123;28;20515;-50
2023/06/13 08:48:16;;;;;;;10.73;4.15;;;;;;;;;;4943695;28;20118;-48
2023/06/13 08:50:42;;;;;;;7.97;2.95;;;;;;;;;;4949460;28;20031;-50
2023/06/13 08:53:09;;;;;;;10.52;4.05;;;;;;;;;;4948471;28;20047;-47
2023/06/13 08:55:37;;;;;;;4.95;2.92;;;;;;;;;;4941147;28;20032;-43
2023/06/13 08:58:04;;;;;;;3.40;3.10;;;;;;;;;;4945888;28;20044;-43
2023/06/13 09:00:35;;;;;;;3.60;3.17;;;;;;;;;;4943339;28;20035;-42
2023/06/13 09:03:03;;;;;;;4.03;3.15;;;;;;;;;;4944299;28;20043;-43
2023/06/13 09:05:30;;;;;;;3.00;2.80;;;;;;;;;;4944824;28;20031;-44
2023/06/13 09:07:56;;;;;;;4.45;3.38;;;;;;;;;;4942482;28;20503;-45
2023/06/13 09:10:22;;;;;;;4.00;3.00;;;;;;;;;;4947606;28;20039;-44
2023/06/13 09:12:51;;;;;;;4.85;3.22;;;;;;;;;;4945609;28;20050;-47
2023/06/13 09:15:16;;;;;;;9.73;2.90;;;;;;;;;;4943993;28;20053;-43
2023/06/13 09:17:42;;;;;;;7.15;3.42;;;;;;;;;;4946451;28;20492;-43
2023/06/13 09:20:08;;;;;;;4.30;3.20;;;;;;;;;;4945776;28;20381;-45
2023/06/13 09:22:34;;;;;;;3.05;2.80;;;;;;;;;;4944529;28;20040;-45
2023/06/13 09:25:00;;;;;;;5.20;3.05;;;;;;;;;;4944498;28;20028;-45
2023/06/13 09:27:27;;;;;;;4.57;3.13;;;;;;;;;;4946190;28;20503;-44
2023/06/13 09:29:52;;;;;;;3.38;3.15;;;;;;;;;;4943325;28;20068;-45
2023/06/13 09:32:22;;;;;;;4.47;3.25;;;;;;;;;;4947695;28;20079;-45
2023/06/13 09:34:51;;;;;;;6.68;3.28;;;;;;;;;;4947817;28;20054;-43
2023/06/13 09:37:17;;;;;;;4.30;3.30;;;;;;;;;;4949550;28;20039;-46
2023/06/13 09:39:50;;;;;;;3.17;2.50;;;;;;;;;;4944480;28;20094;-43
2023/06/13 09:42:20;;;;;;;6.95;3.15;;;;;;;;;;4940762;28;20122;-43
2023/06/13 09:44:47;;;;;;;3.13;2.78;;;;;;;;;;4944158;28;20030;-44
2023/06/13 09:47:23;;;;;;;2.80;2.60;;;;;;;;;;4941724;28;20039;-44
2023/06/13 09:49:56;;;;;;;4.40;2.90;;;;;;;;;;4945441;28;20039;-45
2023/06/13 09:52:25;;;;;;;2.95;2.75;;;;;;;;;;4945588;28;20057;-44
2023/06/13 09:54:52;;;;;;;4.38;2.75;;;;;;;;;;4945182;28;20035;-43
2023/06/13 09:57:21;;;;;;;3.10;2.75;;;;;;;;;;4941415;28;20075;-48
2023/06/13 09:59:48;;;;;;;5.68;2.83;;;;;;;;;;4948801;28;20425;-44
2023/06/13 10:02:15;;;;;;;3.00;2.80;;;;;;;;;;4943489;28;20047;-44
2023/06/13 10:04:41;;;;;;;4.07;3.00;;;;;;;;;;4945625;28;20027;-44
2023/06/13 10:07:06;;;;;;;10.15;3.15;;;;;;;;;;4947155;28;20090;-45
2023/06/13 10:09:31;;;;;;;7.97;3.25;;;;;;;;;;4941154;28;20027;-44
2023/06/13 10:11:59;;;;;;;3.25;2.83;;;;;;;;;;4940526;28;20063;-44
2023/06/13 10:14:27;;;;;;;6.40;2.72;;;;;;;;;;4941734;28;20036;-46
2023/06/13 10:17:01;;;;;;;3.28;2.95;;;;;;;;;;4948362;28;20094;-45
2023/06/13 10:19:27;;;;;;;4.78;3.28;;;;;;;;;;4940707;28;20173;-43
2023/06/13 10:21:52;;;;;;;4.40;3.60;;;;;;;;;;4942052;28;20047;-45
2023/06/13 10:24:21;;;;;;;3.55;3.25;;;;;;;;;;4945476;28;20032;-45
2023/06/13 10:26:47;;;;;;;6.72;3.28;;;;;;;;;;4941480;28;20028;-46
2023/06/13 10:29:50;;;;;;;3.85;3.40;;;;;;;;;;4944340;28;20039;-44
2023/06/13 10:32:42;;;;;;;2.97;2.78;;;;;;;;;;4930938;29;20070;-46
2023/06/13 10:35:32;;;;;;;7.30;3.33;;;;;;;;;;4944641;28;20019;-45
2023/06/13 10:38:37;;;;;;;3.08;2.88;;;;;;;;;;4943949;28;20039;-45
2023/06/13 10:41:29;;;;;;;2.80;2.63;;;;;;;;;;4939568;28;20035;-46
2023/06/13 10:44:05;;;;;;;3.08;2.88;;;;;;;;;;4942276;28;20472;-43
2023/06/13 10:46:31;;;;;;;8.05;3.13;;;;;;;;;;4943814;28;20039;-43
2023/06/13 10:48:59;;;;;;;3.53;3.17;;;;;;;;;;4947734;28;20027;-45
2023/06/13 10:51:27;;;;;;;3.45;3.15;;;;;;;;;;4945083;28;21008;-46
2023/06/13 10:54:02;;;;;;;3.15;2.92;;;;;;;;;;4946924;28;20035;-44
2023/06/13 10:56:32;;;;;;;4.35;2.70;;;;;;;;;;4942203;28;20063;-45
2023/06/13 10:59:05;;;;;;;3.10;2.88;;;;;;;;;;4944664;28;20094;-45
2023/06/13 11:01:32;;;;;;;5.65;3.13;;;;;;;;;;4944898;28;20185;-44
2023/06/13 11:04:11;;;;;;;2.85;2.65;;;;;;;;;;4945210;28;20532;-44
2023/06/13 11:06:38;;;;;;;2.75;2.65;;;;;;;;;;4941722;28;20122;-44
2023/06/13 11:09:17;;;;;;;4.38;2.72;;;;;;;;;;4944850;28;20384;-46
2023/06/13 11:12:06;;;;;;;3.35;2.70;;;;;;;;;;4943102;28;20035;-47
2023/06/13 11:14:37;;;;;;;6.43;2.95;;;;;;;;;;4945039;28;20126;-46
2023/06/13 11:17:04;;;;;;;6.25;2.88;;;;;;;;;;4943557;28;20090;-44
2023/06/13 11:19:32;;;;;;;3.30;2.70;;;;;;;;;;4942911;28;20047;-45
2023/06/13 11:21:57;;;;;;;3.78;3.47;;;;;;;;;;4942210;28;20134;-44
2023/06/13 11:24:23;;;;;;;3.05;2.83;;;;;;;;;;4942845;28;20110;-45
2023/06/13 11:26:48;;;;;;;3.20;2.90;;;;;;;;;;4939595;28;20043;-44
2023/06/13 11:29:15;;;;;;;5.75;3.10;;;;;;;;;;4941375;28;20035;-45
2023/06/13 11:31:40;;;;;;;2.97;2.78;;;;;;;;;;4941423;28;20047;-44
2023/06/13 11:34:13;;;;;;;6.47;2.85;;;;;;;;;;4945390;28;20042;-44
2023/06/13 11:36:42;;;;;;;2.72;2.53;;;;;;;;;;4940151;28;20386;-45
2023/06/13 11:39:13;;;;;;;4.07;2.75;;;;;;;;;;4944763;28;20061;-44
2023/06/13 11:41:39;;;;;;;3.00;2.70;;;;;;;;;;4943485;28;20039;-44
2023/06/13 11:44:06;;;;;;;2.58;2.42;;;;;;;;;;4943990;28;20038;-44
2023/06/13 11:46:31;;;;;;;2.97;2.58;;;;;;;;;;4937030;28;20050;-49
2023/06/13 11:48:57;;;;;;;4.90;2.67;;;;;;;;;;4943757;28;20035;-46
2023/06/13 11:51:26;;;;;;;2.90;2.60;;;;;;;;;;4942200;28;20036;-45
2023/06/13 11:53:57;;;;;;;2.58;2.47;;;;;;;;;;4942698;28;20054;-45
2023/06/13 11:56:24;;;;;;;3.20;2.90;;;;;;;;;;4928851;28;20043;-47
2023/06/13 11:58:51;;;;;;;3.10;2.90;;;;;;;;;;4943455;28;20043;-49
2023/06/13 12:01:17;;;;;;;2.90;2.70;;;;;;;;;;4944586;28;20050;-45
2023/06/13 12:03:44;;;;;;;2.50;2.30;;;;;;;;;;4944181;28;20038;-47
2023/06/13 12:06:10;;;;;;;3.28;2.42;;;;;;;;;;4943337;28;20035;-45
2023/06/13 12:08:38;;;;;;;2.50;2.30;;;;;;;;;;4943856;28;20019;-46
2023/06/13 12:11:07;;;;;;;2.15;2.00;;;;;;;;;;4946367;28;20599;-45
2023/06/13 12:13:33;;;;;;;2.50;2.30;;;;;;;;;;4943271;28;20494;-45
2023/06/13 12:15:59;;;;;;;3.45;2.65;;;;;;;;;;4939555;28;20023;-45
2023/06/13 12:18:25;;;;;;;2.50;2.30;;;;;;;;;;4944729;28;20026;-44
2023/06/13 12:20:53;;;;;;;3.15;2.10;;;;;;;;;;4947614;28;20764;-45
2023/06/13 12:23:19;;;;;;;5.07;2.55;;;;;;;;;;4941942;28;20122;-45
2023/06/13 12:25:46;;;;;;;2.50;2.30;;;;;;;;;;4942587;28;20027;-43
2023/06/13 12:28:15;;;;;;;2.53;2.33;;;;;;;;;;4943575;28;20614;-45
2023/06/13 12:30:42;;;;;;;3.20;2.67;;;;;;;;;;4946451;28;20106;-43
2023/06/13 12:33:09;;;;;;;3.40;2.22;;;;;;;;;;4940991;28;20134;-45
2023/06/13 12:35:35;;;;;;;2.40;2.20;;;;;;;;;;4946797;28;20019;-46
2023/06/13 12:38:01;;;;;;;3.00;2.80;;;;;;;;;;4941598;28;20042;-45
2023/06/13 12:40:33;;;;;;;1.60;1.50;;;;;;;;;;4945899;28;20083;-46
2023/06/13 12:43:02;;;;;;;1.70;1.60;;;;;;;;;;4946748;28;20134;-44
2023/06/13 12:45:28;;;;;;;1.70;1.60;;;;;;;;;;4944270;28;20020;-45
2023/06/13 12:47:55;;;;;;;1.88;1.67;;;;;;;;;;4941671;28;20043;-45
2023/06/13 12:50:22;;;;;;;2.35;2.20;;;;;;;;;;4943263;28;20031;-45
2023/06/13 12:52:48;;;;;;;2.30;2.10;;;;;;;;;;4945806;28;20043;-45
2023/06/13 12:55:15;;;;;;;5.50;3.33;;;;;;;;;;4948196;28;20043;-44
2023/06/13 12:57:40;;;;;;;2.83;2.63;;;;;;;;;;4947612;28;20035;-45
2023/06/13 13:00:10;;;;;;;4.22;2.78;;;;;;;;;;4942878;28;20161;-44
2023/06/13 13:02:35;;;;;;;4.18;2.92;;;;;;;;;;4927123;28;20683;-46
2023/06/13 13:05:02;;;;;;;3.40;2.92;;;;;;;;;;4947749;28;20059;-45
2023/06/13 13:07:29;;;;;;;3.17;2.70;;;;;;;;;;4943370;28;20050;-43
2023/06/13 13:09:56;;;;;;;3.15;2.85;;;;;;;;;;4948965;28;20031;-45
2023/06/13 13:12:22;;;;;;;5.40;2.67;;;;;;;;;;4944792;28;20043;-43
2023/06/13 13:14:47;;;;;;;4.03;2.75;;;;;;;;;;4946653;28;20671;-45
2023/06/13 13:17:13;;;;;;;3.17;2.88;;;;;;;;;;4948693;28;20043;-44
2023/06/13 13:19:39;;;;;;;3.95;3.22;;;;;;;;;;4948920;28;20023;-43
2023/06/13 13:22:05;;;;;;;3.97;3.17;;;;;;;;;;4945677;28;20461;-45
2023/06/13 13:24:30;;;;;;;6.93;3.75;;;;;;;;;;4950772;28;20035;-44
2023/06/13 13:26:56;;;;;;;3.85;2.90;;;;;;;;;;4944509;28;20039;-44
2023/06/13 13:29:23;;;;;;;6.20;3.53;;;;;;;;;;4947212;28;20552;-44
2023/06/13 13:31:49;;;;;;;4.80;3.10;;;;;;;;;;4944346;28;20062;-44
2023/06/13 13:34:15;;;;;;;4.32;3.13;;;;;;;;;;4947560;28;20070;-45
2023/06/13 13:36:40;;;;;;;6.25;3.20;;;;;;;;;;4946489;28;20052;-44
2023/06/13 13:39:08;;;;;;;6.60;3.03;;;;;;;;;;4943595;28;20037;-44
2023/06/13 13:41:35;;;;;;;3.30;2.92;;;;;;;;;;4949205;28;20477;-44
2023/06/13 13:44:02;;;;;;;3.88;2.78;;;;;;;;;;4949043;28;20031;-44
2023/06/13 13:46:27;;;;;;;4.65;2.80;;;;;;;;;;4945995;28;20256;-44
2023/06/13 13:48:53;;;;;;;3.47;2.80;;;;;;;;;;4948183;28;20473;-43
2023/06/13 13:51:23;;;;;;;6.03;3.00;;;;;;;;;;4944532;28;20039;-44
2023/06/13 13:53:49;;;;;;;2.97;2.58;;;;;;;;;;4944166;28;20027;-45
2023/06/13 13:56:15;;;;;;;6.07;2.50;;;;;;;;;;4946084;28;20051;-47
2023/06/13 13:58:40;;;;;;;3.47;2.40;;;;;;;;;;4946700;28;20027;-45
2023/06/13 14:01:06;;;;;;;3.88;2.50;;;;;;;;;;4942506;28;20027;-45
2023/06/13 14:03:31;;;;;;;5.32;2.63;;;;;;;;;;4945170;28;20035;-44
2023/06/13 14:05:56;;;;;;;4.43;2.83;;;;;;;;;;4945695;28;20035;-46
2023/06/13 14:08:22;;;;;;;5.72;2.90;;;;;;;;;;4948144;28;20082;-45
2023/06/13 14:10:47;;;;;;;3.35;2.90;;;;;;;;;;4946163;28;20090;-44
2023/06/13 14:13:13;;;;;;;2.83;2.38;;;;;;;;;;4944668;28;20078;-45
2023/06/13 14:15:38;;;;;;;2.95;2.70;;;;;;;;;;4941740;28;20079;-43
2023/06/13 14:18:04;;;;;;;2.95;2.40;;;;;;;;;;4941269;28;20078;-46
2023/06/13 14:20:29;;;;;;;5.47;2.75;;;;;;;;;;4944074;28;20115;-44
2023/06/13 14:22:55;;;;;;;3.25;3.00;;;;;;;;;;4943551;28;20079;-44
2023/06/13 14:25:20;;;;;;;3.30;2.35;;;;;;;;;;4948994;28;20031;-44
2023/06/13 14:27:45;;;;;;;4.80;2.30;;;;;;;;;;4947602;28;20042;-45
2023/06/13 14:30:11;;;;;;;4.85;2.60;;;;;;;;;;4945511;28;20032;-44
2023/06/13 14:32:36;;;;;;;4.18;2.63;;;;;;;;;;4940639;28;20098;-46
2023/06/13 14:35:02;;;;;;;3.40;3.10;;;;;;;;;;4946168;28;20035;-43
2023/06/13 14:37:28;;;;;;;3.13;2.80;;;;;;;;;;4945806;28;20046;-45
2023/06/13 14:39:53;;;;;;;4.78;2.80;;;;;;;;;;4943596;28;20484;-45
2023/06/13 14:42:18;;;;;;;2.80;2.60;;;;;;;;;;4945484;28;20043;-45
2023/06/13 14:44:45;;;;;;;2.63;2.42;;;;;;;;;;4946275;28;20499;-44